Aérodrome :
LOGIN :

S'inscrire | Disclaimer

   EN    FR    IT 

 










Légende :    VFR   VFR Marginal   IFR   IFR Intensif   IFR Très Intensif
Visi : 
Plafond : 
>= 8 km
>= 3000ft
5 à 8 km
1000 à 3000 ft
1500m à 5 km
500 à 1000 ft
800 à 1500m
200 à 500 ft
< 800m
< 200 ft
Symboles :   Orages  Brouillard  Fortes neiges  Fortes précipitations  Vent > 20 kt
SIGMETs :   Divers  Orages  Givrage  Turbulence  Onde Orograph.  Cendres Volcan.







- Altitude de l'aérodrome : 308 ft
- Code IATA : MHG


EDFM - Mannheim-City

DERNIER METAR :
  • 131620Z 20010KT 160V230 9999 -RA BKN008 03/03 Q1004

METARs EXPIRÉS :
  • 131550Z 20010KT 170V230 9999 -RA BKN010 BKN014 03/03 Q1005
  • 131520Z 19012KT 150V220 9999 -RA OVC011 03/03 Q1005
  • 131450Z 19010KT 160V220 9999 -RA SCT011 BKN013 04/03 Q1006
  • 131420Z 20009KT 170V240 9999 -RA SCT009 BKN015 BKN020 04/02 Q1006
  • 131350Z 20014G24KT 160V240 9999 -RA BKN011 BKN025 05/M00 Q1007

TAF TAF EDFM
Valide du 13 à 15h jusqu'au 13 à 21h UTC


131400Z 1315/1321 18011KT 9999 BKN030
TEMPO 1315/1321 19015G25KT 4500 RA BKN012
Pas de NOTAMs connus pour ce terrain.



MET'MAP, la Météo Aéronautique d'un coup d'oeil ! - Copyright ORBIFLY Décembre 2007 - Disclaimer

ORBIFLY MET'MAP TEAM :

Programmation & Développement : Alexandra Zaïnal
Conception & Développement : Baudouin d'Aumeries
Co-Programmation & Développement : Marc-Olivier Méhu
Soutien technique & logistique : Manuel Goepfert

Contact : metmap@orbifly.com




SOURCES & CREDITS :

   NOAA